This is the latest recevied weather packets stored in our database for station/object KB4NWJ. If no packets are shown the sender has not sent any weather packets the latest 10 day(s).
| Time | Temp. | Humidity | Pressure | Rain* | Wind** | Luminosity | Snow |
|---|---|---|---|---|---|---|---|
| 1777039878 | 22.22° C | 65% | 1015.9 hPa | 0 mm | - | 470 W/m² | - |
| 1777039574 | 22.22° C | 66% | 1016.1 hPa | 0 mm | - | 359 W/m² | - |
| 1777039269 | 22.22° C | 65% | 1015.9 hPa | 0 mm | - | 678 W/m² | - |
| 1777038969 | 23.89° C | 61% | 1016 hPa | 0 mm | - | 592 W/m² | - |
| 1777038665 | 23.33° C | 67% | 1016 hPa | 0 mm | - | 542 W/m² | - |
| 1777038360 | 22.78° C | 68% | 1016.1 hPa | 0 mm | - | 478 W/m² | - |
| 1777038055 | 22.22° C | 73% | 1015.9 hPa | 0 mm | - | 479 W/m² | - |
| 1777037751 | 22.22° C | 73% | 1016 hPa | 0 mm | - | 429 W/m² | - |
| 1777037447 | 21.67° C | 71% | 1016 hPa | 0 mm | - | 399 W/m² | - |
| 1777037145 | 20.56° C | 76% | 1016 hPa | 0 mm | - | 379 W/m² | - |
| 1777036842 | 20.56° C | 77% | 1016.1 hPa | 0 mm | - | 320 W/m² | - |
| 1777036539 | 20° C | 78% | 1016.1 hPa | 0 mm | - | 303 W/m² | - |
| 1777036237 | 18.89° C | 81% | 1015.9 hPa | 0 mm | - | 285 W/m² | - |
| 1777035935 | 18.33° C | 82% | 1015.7 hPa | 0 mm | - | 233 W/m² | - |
| 1777035629 | 18.33° C | 84% | 1015.7 hPa | 0 mm | - | 233 W/m² | - |
| 1777035326 | 17.78° C | 85% | 1015.6 hPa | 0 mm | - | 223 W/m² | - |
| 1777035021 | 17.22° C | 87% | 1015.7 hPa | 0 mm | - | 212 W/m² | - |
| 1777034718 | 17.22° C | 88% | 1015.9 hPa | 0 mm | - | 146 W/m² | - |
| 1777034415 | 17.78° C | 86% | 1016 hPa | 0 mm | - | 124 W/m² | - |
| 1777034112 | 16.11° C | 92% | 1015.8 hPa | 0 mm | - | 108 W/m² | - |
| 1777033811 | 16.11° C | 92% | 1015.9 hPa | 0 mm | - | 100 W/m² | - |
| 1777033509 | 15° C | 97% | 1015.8 hPa | 0 mm | - | 93 W/m² | - |
| 1777033201 | 14.44° C | 99% | 1015.8 hPa | 0 mm | - | 78 W/m² | - |
| 1777032897 | 13.89° C | 99% | 1015.7 hPa | 0 mm | - | 73 W/m² | - |
| 1777032593 | 13.89° C | 99% | 1015.7 hPa | 0 mm | - | 63 W/m² | - |
* Rain latest hour (hover to see other rain measurements)
** Current wind speed in m/s (hover to see current wind gust speed)